sensor_id;sensor_type;location;lat;lon;timestamp;P1;durP1;ratioP1;P2;durP2;ratioP2
8399;SDS011;4237;47.030;15.396;2022-10-26T00:00:34;7.97;;;3.63;;
8399;SDS011;4237;47.030;15.396;2022-10-26T00:03:02;7.80;;;3.60;;
8399;SDS011;4237;47.030;15.396;2022-10-26T00:05:31;4.03;;;3.10;;
8399;SDS011;4237;47.030;15.396;2022-10-26T00:08:00;9.33;;;3.13;;
8399;SDS011;4237;47.030;15.396;2022-10-26T00:10:29;8.43;;;3.10;;
8399;SDS011;4237;47.030;15.396;2022-10-26T00:12:57;4.93;;;3.03;;
8399;SDS011;4237;47.030;15.396;2022-10-26T00:15:25;6.60;;;2.83;;
8399;SDS011;4237;47.030;15.396;2022-10-26T00:17:53;4.87;;;3.20;;
8399;SDS011;4237;47.030;15.396;2022-10-26T00:20:21;6.73;;;2.90;;
8399;SDS011;4237;47.030;15.396;2022-10-26T00:22:50;6.93;;;3.03;;
8399;SDS011;4237;47.030;15.396;2022-10-26T00:25:18;8.30;;;2.83;;
8399;SDS011;4237;47.030;15.396;2022-10-26T00:27:46;11.23;;;3.43;;
8399;SDS011;4237;47.030;15.396;2022-10-26T00:30:16;6.80;;;3.30;;
8399;SDS011;4237;47.030;15.396;2022-10-26T00:32:44;4.93;;;3.10;;
8399;SDS011;4237;47.030;15.396;2022-10-26T00:35:12;6.50;;;3.07;;
8399;SDS011;4237;47.030;15.396;2022-10-26T00:37:40;8.87;;;2.80;;
8399;SDS011;4237;47.030;15.396;2022-10-26T00:40:09;9.07;;;3.30;;
8399;SDS011;4237;47.030;15.396;2022-10-26T00:42:37;4.60;;;3.30;;
8399;SDS011;4237;47.030;15.396;2022-10-26T00:45:15;8.47;;;3.33;;
8399;SDS011;4237;47.030;15.396;2022-10-26T00:47:45;7.07;;;3.13;;
8399;SDS011;4237;47.030;15.396;2022-10-26T00:50:17;9.30;;;3.47;;
8399;SDS011;4237;47.030;15.396;2022-10-26T00:52:44;7.87;;;3.00;;
8399;SDS011;4237;47.030;15.396;2022-10-26T00:55:12;5.33;;;3.50;;
8399;SDS011;4237;47.030;15.396;2022-10-26T00:57:41;11.00;;;3.50;;
8399;SDS011;4237;47.030;15.396;2022-10-26T01:00:09;3.70;;;3.30;;
8399;SDS011;4237;47.030;15.396;2022-10-26T01:02:38;8.70;;;3.60;;
8399;SDS011;4237;47.030;15.396;2022-10-26T01:05:06;12.33;;;4.43;;
8399;SDS011;4237;47.030;15.396;2022-10-26T01:07:35;8.33;;;4.03;;
8399;SDS011;4237;47.030;15.396;2022-10-26T01:10:03;8.97;;;3.60;;
8399;SDS011;4237;47.030;15.396;2022-10-26T01:12:33;5.57;;;3.17;;
8399;SDS011;4237;47.030;15.396;2022-10-26T01:15:01;10.13;;;6.30;;
8399;SDS011;4237;47.030;15.396;2022-10-26T01:18:17;8.63;;;4.80;;
8399;SDS011;4237;47.030;15.396;2022-10-26T01:22:31;10.07;;;5.83;;
8399;SDS011;4237;47.030;15.396;2022-10-26T01:27:33;14.30;;;5.63;;
8399;SDS011;4237;47.030;15.396;2022-10-26T01:30:15;12.90;;;6.50;;
8399;SDS011;4237;47.030;15.396;2022-10-26T01:35:50;11.93;;;6.23;;
8399;SDS011;4237;47.030;15.396;2022-10-26T01:38:32;16.37;;;6.33;;
8399;SDS011;4237;47.030;15.396;2022-10-26T01:41:04;10.77;;;5.83;;
8399;SDS011;4237;47.030;15.396;2022-10-26T01:43:34;12.10;;;6.53;;
8399;SDS011;4237;47.030;15.396;2022-10-26T01:46:02;13.47;;;6.60;;
8399;SDS011;4237;47.030;15.396;2022-10-26T01:48:31;15.20;;;7.30;;
8399;SDS011;4237;47.030;15.396;2022-10-26T01:51:00;16.77;;;6.77;;
8399;SDS011;4237;47.030;15.396;2022-10-26T01:53:31;11.37;;;6.47;;
8399;SDS011;4237;47.030;15.396;2022-10-26T01:55:59;15.17;;;6.63;;
8399;SDS011;4237;47.030;15.396;2022-10-26T02:08:49;13.97;;;5.57;;
8399;SDS011;4237;47.030;15.396;2022-10-26T02:11:18;11.83;;;6.43;;
8399;SDS011;4237;47.030;15.396;2022-10-26T02:13:45;7.40;;;6.03;;
8399;SDS011;4237;47.030;15.396;2022-10-26T02:18:59;13.83;;;6.90;;
8399;SDS011;4237;47.030;15.396;2022-10-26T02:21:24;15.53;;;6.07;;
8399;SDS011;4237;47.030;15.396;2022-10-26T02:23:53;13.37;;;6.40;;
8399;SDS011;4237;47.030;15.396;2022-10-26T02:26:23;13.37;;;6.17;;
8399;SDS011;4237;47.030;15.396;2022-10-26T02:28:52;9.17;;;5.10;;
8399;SDS011;4237;47.030;15.396;2022-10-26T02:31:22;11.47;;;5.90;;
8399;SDS011;4237;47.030;15.396;2022-10-26T02:33:51;8.90;;;5.67;;
8399;SDS011;4237;47.030;15.396;2022-10-26T02:36:23;10.67;;;5.87;;
8399;SDS011;4237;47.030;15.396;2022-10-26T02:38:51;12.27;;;6.37;;
8399;SDS011;4237;47.030;15.396;2022-10-26T02:41:20;9.43;;;6.03;;
8399;SDS011;4237;47.030;15.396;2022-10-26T02:44:07;10.17;;;6.17;;
8399;SDS011;4237;47.030;15.396;2022-10-26T02:46:23;15.23;;;6.10;;
8399;SDS011;4237;47.030;15.396;2022-10-26T02:48:53;15.03;;;6.43;;
8399;SDS011;4237;47.030;15.396;2022-10-26T02:56:28;12.93;;;6.73;;
8399;SDS011;4237;47.030;15.396;2022-10-26T02:58:58;12.10;;;6.07;;
8399;SDS011;4237;47.030;15.396;2022-10-26T03:01:27;9.83;;;6.90;;
8399;SDS011;4237;47.030;15.396;2022-10-26T03:03:56;9.20;;;6.00;;
8399;SDS011;4237;47.030;15.396;2022-10-26T03:06:25;16.90;;;6.80;;
8399;SDS011;4237;47.030;15.396;2022-10-26T03:08:53;18.87;;;7.50;;
8399;SDS011;4237;47.030;15.396;2022-10-26T03:11:22;11.97;;;5.60;;
8399;SDS011;4237;47.030;15.396;2022-10-26T03:13:50;16.83;;;7.83;;
8399;SDS011;4237;47.030;15.396;2022-10-26T03:16:18;15.80;;;8.60;;
8399;SDS011;4237;47.030;15.396;2022-10-26T03:18:47;17.73;;;8.57;;
8399;SDS011;4237;47.030;15.396;2022-10-26T03:21:15;24.10;;;8.93;;
8399;SDS011;4237;47.030;15.396;2022-10-26T03:23:43;14.90;;;8.60;;
8399;SDS011;4237;47.030;15.396;2022-10-26T03:26:13;12.30;;;7.07;;
8399;SDS011;4237;47.030;15.396;2022-10-26T03:28:41;16.10;;;7.53;;
8399;SDS011;4237;47.030;15.396;2022-10-26T03:31:09;12.30;;;6.87;;
8399;SDS011;4237;47.030;15.396;2022-10-26T03:33:37;9.90;;;6.80;;
8399;SDS011;4237;47.030;15.396;2022-10-26T03:36:06;11.37;;;6.53;;
8399;SDS011;4237;47.030;15.396;2022-10-26T03:38:35;12.70;;;6.33;;
8399;SDS011;4237;47.030;15.396;2022-10-26T03:41:03;10.13;;;6.80;;
8399;SDS011;4237;47.030;15.396;2022-10-26T03:43:31;9.50;;;6.77;;
8399;SDS011;4237;47.030;15.396;2022-10-26T03:45:59;11.20;;;6.40;;
8399;SDS011;4237;47.030;15.396;2022-10-26T03:48:27;11.13;;;7.00;;
8399;SDS011;4237;47.030;15.396;2022-10-26T03:50:56;8.87;;;6.20;;
8399;SDS011;4237;47.030;15.396;2022-10-26T03:53:25;10.63;;;6.83;;
8399;SDS011;4237;47.030;15.396;2022-10-26T03:55:54;17.23;;;6.47;;
8399;SDS011;4237;47.030;15.396;2022-10-26T03:58:22;16.47;;;7.53;;
8399;SDS011;4237;47.030;15.396;2022-10-26T04:00:50;10.90;;;6.67;;
8399;SDS011;4237;47.030;15.396;2022-10-26T04:03:18;10.20;;;6.57;;
8399;SDS011;4237;47.030;15.396;2022-10-26T04:05:46;12.00;;;7.37;;
8399;SDS011;4237;47.030;15.396;2022-10-26T04:08:15;11.67;;;6.90;;
8399;SDS011;4237;47.030;15.396;2022-10-26T04:10:44;10.33;;;7.07;;
8399;SDS011;4237;47.030;15.396;2022-10-26T04:13:13;15.50;;;8.03;;
8399;SDS011;4237;47.030;15.396;2022-10-26T04:15:41;13.73;;;7.50;;
8399;SDS011;4237;47.030;15.396;2022-10-26T04:18:10;13.47;;;7.87;;
8399;SDS011;4237;47.030;15.396;2022-10-26T04:20:40;18.37;;;8.40;;
8399;SDS011;4237;47.030;15.396;2022-10-26T04:23:12;15.97;;;8.43;;
8399;SDS011;4237;47.030;15.396;2022-10-26T04:25:41;33.20;;;10.13;;
8399;SDS011;4237;47.030;15.396;2022-10-26T04:28:10;25.50;;;10.90;;
8399;SDS011;4237;47.030;15.396;2022-10-26T04:30:39;20.73;;;9.97;;
8399;SDS011;4237;47.030;15.396;2022-10-26T04:33:07;16.07;;;10.00;;
8399;SDS011;4237;47.030;15.396;2022-10-26T04:35:35;28.43;;;13.10;;
8399;SDS011;4237;47.030;15.396;2022-10-26T04:38:04;23.30;;;12.43;;
8399;SDS011;4237;47.030;15.396;2022-10-26T04:40:33;34.07;;;12.60;;
8399;SDS011;4237;47.030;15.396;2022-10-26T04:43:01;24.03;;;10.90;;
8399;SDS011;4237;47.030;15.396;2022-10-26T04:45:30;18.77;;;10.13;;
8399;SDS011;4237;47.030;15.396;2022-10-26T04:47:59;21.77;;;11.10;;
8399;SDS011;4237;47.030;15.396;2022-10-26T04:50:27;27.77;;;13.03;;
8399;SDS011;4237;47.030;15.396;2022-10-26T04:52:56;35.70;;;13.67;;
8399;SDS011;4237;47.030;15.396;2022-10-26T04:55:25;24.47;;;13.23;;
8399;SDS011;4237;47.030;15.396;2022-10-26T04:57:53;34.70;;;13.33;;
8399;SDS011;4237;47.030;15.396;2022-10-26T05:00:21;28.90;;;13.57;;
8399;SDS011;4237;47.030;15.396;2022-10-26T05:02:49;25.93;;;12.43;;
8399;SDS011;4237;47.030;15.396;2022-10-26T05:05:18;23.60;;;10.00;;
8399;SDS011;4237;47.030;15.396;2022-10-26T05:07:52;11.30;;;7.17;;
8399;SDS011;4237;47.030;15.396;2022-10-26T05:10:15;13.00;;;7.57;;
8399;SDS011;4237;47.030;15.396;2022-10-26T05:12:49;17.43;;;7.40;;
8399;SDS011;4237;47.030;15.396;2022-10-26T05:15:13;14.20;;;7.77;;
8399;SDS011;4237;47.030;15.396;2022-10-26T05:17:42;12.27;;;7.77;;
8399;SDS011;4237;47.030;15.396;2022-10-26T05:20:12;19.33;;;8.87;;
8399;SDS011;4237;47.030;15.396;2022-10-26T05:22:40;16.63;;;7.63;;
8399;SDS011;4237;47.030;15.396;2022-10-26T05:25:08;16.60;;;7.27;;
8399;SDS011;4237;47.030;15.396;2022-10-26T05:27:36;18.83;;;8.20;;
8399;SDS011;4237;47.030;15.396;2022-10-26T05:30:05;14.57;;;8.37;;
8399;SDS011;4237;47.030;15.396;2022-10-26T05:32:34;21.17;;;8.80;;
8399;SDS011;4237;47.030;15.396;2022-10-26T05:35:02;20.30;;;9.50;;
8399;SDS011;4237;47.030;15.396;2022-10-26T05:37:30;19.53;;;9.20;;
8399;SDS011;4237;47.030;15.396;2022-10-26T05:39:58;15.40;;;9.10;;
8399;SDS011;4237;47.030;15.396;2022-10-26T05:42:27;13.73;;;7.77;;
8399;SDS011;4237;47.030;15.396;2022-10-26T05:44:55;21.90;;;9.63;;
8399;SDS011;4237;47.030;15.396;2022-10-26T05:47:23;19.77;;;8.33;;
8399;SDS011;4237;47.030;15.396;2022-10-26T05:49:51;18.73;;;7.90;;
8399;SDS011;4237;47.030;15.396;2022-10-26T05:52:19;16.53;;;8.97;;
8399;SDS011;4237;47.030;15.396;2022-10-26T05:54:47;20.23;;;9.43;;
8399;SDS011;4237;47.030;15.396;2022-10-26T05:57:16;21.67;;;9.47;;
8399;SDS011;4237;47.030;15.396;2022-10-26T05:59:44;21.33;;;10.10;;
8399;SDS011;4237;47.030;15.396;2022-10-26T06:02:26;22.87;;;9.73;;
8399;SDS011;4237;47.030;15.396;2022-10-26T06:04:54;21.83;;;10.93;;
8399;SDS011;4237;47.030;15.396;2022-10-26T06:07:24;20.17;;;10.33;;
8399;SDS011;4237;47.030;15.396;2022-10-26T06:09:54;22.00;;;11.70;;
8399;SDS011;4237;47.030;15.396;2022-10-26T06:12:22;22.57;;;10.47;;
8399;SDS011;4237;47.030;15.396;2022-10-26T06:14:53;18.90;;;10.13;;
8399;SDS011;4237;47.030;15.396;2022-10-26T06:30:35;11.87;;;8.10;;
8399;SDS011;4237;47.030;15.396;2022-10-26T06:33:03;18.03;;;8.63;;
8399;SDS011;4237;47.030;15.396;2022-10-26T06:38:19;13.17;;;7.80;;
8399;SDS011;4237;47.030;15.396;2022-10-26T06:40:44;16.73;;;8.43;;
8399;SDS011;4237;47.030;15.396;2022-10-26T06:43:16;14.30;;;8.50;;
8399;SDS011;4237;47.030;15.396;2022-10-26T06:45:43;15.63;;;9.23;;
8399;SDS011;4237;47.030;15.396;2022-10-26T06:48:17;18.73;;;8.37;;
8399;SDS011;4237;47.030;15.396;2022-10-26T06:50:53;10.27;;;6.77;;
8399;SDS011;4237;47.030;15.396;2022-10-26T06:53:22;10.27;;;7.13;;
8399;SDS011;4237;47.030;15.396;2022-10-26T06:55:52;11.17;;;6.10;;
8399;SDS011;4237;47.030;15.396;2022-10-26T06:58:21;9.60;;;5.80;;
8399;SDS011;4237;47.030;15.396;2022-10-26T07:00:51;13.67;;;5.93;;
8399;SDS011;4237;47.030;15.396;2022-10-26T07:03:20;11.33;;;6.13;;
8399;SDS011;4237;47.030;15.396;2022-10-26T07:05:49;14.70;;;6.40;;
8399;SDS011;4237;47.030;15.396;2022-10-26T07:08:17;15.23;;;6.77;;
8399;SDS011;4237;47.030;15.396;2022-10-26T07:10:45;10.80;;;6.20;;
8399;SDS011;4237;47.030;15.396;2022-10-26T07:13:14;15.30;;;6.67;;
8399;SDS011;4237;47.030;15.396;2022-10-26T07:15:42;16.23;;;7.40;;
8399;SDS011;4237;47.030;15.396;2022-10-26T07:18:11;8.33;;;6.33;;
8399;SDS011;4237;47.030;15.396;2022-10-26T07:20:40;12.77;;;7.47;;
8399;SDS011;4237;47.030;15.396;2022-10-26T07:23:09;8.10;;;6.53;;
8399;SDS011;4237;47.030;15.396;2022-10-26T07:25:37;9.37;;;7.30;;
8399;SDS011;4237;47.030;15.396;2022-10-26T07:28:07;10.20;;;7.00;;
8399;SDS011;4237;47.030;15.396;2022-10-26T07:30:36;12.10;;;6.73;;
8399;SDS011;4237;47.030;15.396;2022-10-26T07:33:07;13.40;;;6.40;;
8399;SDS011;4237;47.030;15.396;2022-10-26T07:35:35;10.63;;;6.97;;
8399;SDS011;4237;47.030;15.396;2022-10-26T07:38:03;12.73;;;6.07;;
8399;SDS011;4237;47.030;15.396;2022-10-26T07:40:32;7.30;;;5.80;;
8399;SDS011;4237;47.030;15.396;2022-10-26T07:43:00;12.50;;;5.93;;
8399;SDS011;4237;47.030;15.396;2022-10-26T07:45:28;9.17;;;5.40;;
8399;SDS011;4237;47.030;15.396;2022-10-26T07:47:57;10.27;;;5.77;;
8399;SDS011;4237;47.030;15.396;2022-10-26T07:50:25;7.87;;;5.63;;
8399;SDS011;4237;47.030;15.396;2022-10-26T07:52:53;6.93;;;5.13;;
8399;SDS011;4237;47.030;15.396;2022-10-26T07:55:21;7.90;;;5.17;;
8399;SDS011;4237;47.030;15.396;2022-10-26T07:57:51;6.33;;;4.83;;
8399;SDS011;4237;47.030;15.396;2022-10-26T08:00:19;11.17;;;5.47;;
8399;SDS011;4237;47.030;15.396;2022-10-26T08:02:47;9.67;;;5.50;;
8399;SDS011;4237;47.030;15.396;2022-10-26T08:05:15;8.10;;;5.70;;
8399;SDS011;4237;47.030;15.396;2022-10-26T08:07:44;12.33;;;5.77;;
8399;SDS011;4237;47.030;15.396;2022-10-26T08:10:12;8.67;;;5.33;;
8399;SDS011;4237;47.030;15.396;2022-10-26T08:12:41;6.47;;;5.27;;
8399;SDS011;4237;47.030;15.396;2022-10-26T08:15:10;9.37;;;5.13;;
8399;SDS011;4237;47.030;15.396;2022-10-26T08:17:38;8.80;;;5.37;;
8399;SDS011;4237;47.030;15.396;2022-10-26T08:20:07;11.27;;;6.40;;
8399;SDS011;4237;47.030;15.396;2022-10-26T08:22:35;10.40;;;6.20;;
8399;SDS011;4237;47.030;15.396;2022-10-26T08:25:03;8.17;;;5.53;;
8399;SDS011;4237;47.030;15.396;2022-10-26T08:27:33;12.87;;;4.97;;
8399;SDS011;4237;47.030;15.396;2022-10-26T08:30:01;14.23;;;6.13;;
8399;SDS011;4237;47.030;15.396;2022-10-26T08:32:29;6.83;;;5.00;;
8399;SDS011;4237;47.030;15.396;2022-10-26T08:34:57;6.97;;;5.10;;
8399;SDS011;4237;47.030;15.396;2022-10-26T08:37:26;9.90;;;6.30;;
8399;SDS011;4237;47.030;15.396;2022-10-26T08:39:54;9.90;;;6.60;;
8399;SDS011;4237;47.030;15.396;2022-10-26T08:42:24;7.17;;;5.60;;
8399;SDS011;4237;47.030;15.396;2022-10-26T08:44:54;8.63;;;4.97;;
8399;SDS011;4237;47.030;15.396;2022-10-26T08:47:32;9.87;;;5.87;;
8399;SDS011;4237;47.030;15.396;2022-10-26T08:50:22;9.73;;;5.23;;
8399;SDS011;4237;47.030;15.396;2022-10-26T08:52:35;10.97;;;5.47;;
8399;SDS011;4237;47.030;15.396;2022-10-26T08:55:01;9.60;;;5.87;;
8399;SDS011;4237;47.030;15.396;2022-10-26T08:57:35;7.50;;;5.30;;
8399;SDS011;4237;47.030;15.396;2022-10-26T09:00:11;8.40;;;6.00;;
8399;SDS011;4237;47.030;15.396;2022-10-26T09:02:41;8.77;;;5.03;;
8399;SDS011;4237;47.030;15.396;2022-10-26T09:05:21;8.67;;;4.33;;
8399;SDS011;4237;47.030;15.396;2022-10-26T09:07:59;8.50;;;4.67;;
8399;SDS011;4237;47.030;15.396;2022-10-26T09:15:56;9.20;;;4.70;;
8399;SDS011;4237;47.030;15.396;2022-10-26T09:18:23;9.80;;;4.93;;
8399;SDS011;4237;47.030;15.396;2022-10-26T09:23:30;8.03;;;4.53;;
8399;SDS011;4237;47.030;15.396;2022-10-26T09:25:58;6.47;;;4.13;;
8399;SDS011;4237;47.030;15.396;2022-10-26T09:28:28;11.20;;;5.07;;
8399;SDS011;4237;47.030;15.396;2022-10-26T09:30:58;7.87;;;4.90;;
8399;SDS011;4237;47.030;15.396;2022-10-26T09:33:26;9.10;;;5.13;;
8399;SDS011;4237;47.030;15.396;2022-10-26T09:36:00;6.87;;;4.60;;
8399;SDS011;4237;47.030;15.396;2022-10-26T09:46:15;6.87;;;5.10;;
8399;SDS011;4237;47.030;15.396;2022-10-26T09:48:54;9.70;;;4.67;;
8399;SDS011;4237;47.030;15.396;2022-10-26T09:51:19;5.57;;;4.17;;
8399;SDS011;4237;47.030;15.396;2022-10-26T09:53:49;6.63;;;4.60;;
8399;SDS011;4237;47.030;15.396;2022-10-26T09:56:17;7.23;;;4.50;;
8399;SDS011;4237;47.030;15.396;2022-10-26T09:58:55;5.93;;;4.77;;
8399;SDS011;4237;47.030;15.396;2022-10-26T10:01:32;7.53;;;4.30;;
8399;SDS011;4237;47.030;15.396;2022-10-26T10:04:08;5.50;;;4.43;;
8399;SDS011;4237;47.030;15.396;2022-10-26T10:06:38;7.33;;;3.87;;
8399;SDS011;4237;47.030;15.396;2022-10-26T10:09:11;8.27;;;4.10;;
8399;SDS011;4237;47.030;15.396;2022-10-26T10:14:22;4.90;;;3.93;;
8399;SDS011;4237;47.030;15.396;2022-10-26T10:16:54;8.70;;;4.37;;
8399;SDS011;4237;47.030;15.396;2022-10-26T10:19:25;7.13;;;4.40;;
8399;SDS011;4237;47.030;15.396;2022-10-26T10:21:54;5.22;;;4.45;;
8399;SDS011;4237;47.030;15.396;2022-10-26T10:24:30;9.48;;;4.95;;
8399;SDS011;4237;47.030;15.396;2022-10-26T10:27:14;7.20;;;4.40;;
8399;SDS011;4237;47.030;15.396;2022-10-26T10:29:38;7.60;;;4.90;;
8399;SDS011;4237;47.030;15.396;2022-10-26T10:32:04;9.18;;;4.45;;
8399;SDS011;4237;47.030;15.396;2022-10-26T10:34:33;5.25;;;4.05;;
8399;SDS011;4237;47.030;15.396;2022-10-26T10:37:02;4.03;;;3.62;;
8399;SDS011;4237;47.030;15.396;2022-10-26T10:42:04;6.60;;;3.95;;
8399;SDS011;4237;47.030;15.396;2022-10-26T10:44:33;6.25;;;4.00;;
8399;SDS011;4237;47.030;15.396;2022-10-26T10:47:02;6.90;;;3.85;;
8399;SDS011;4237;47.030;15.396;2022-10-26T10:49:32;3.83;;;3.47;;
8399;SDS011;4237;47.030;15.396;2022-10-26T10:52:00;8.00;;;3.75;;
8399;SDS011;4237;47.030;15.396;2022-10-26T10:54:32;5.85;;;3.83;;
8399;SDS011;4237;47.030;15.396;2022-10-26T10:57:10;6.58;;;3.77;;
8399;SDS011;4237;47.030;15.396;2022-10-26T10:59:46;11.12;;;4.20;;
8399;SDS011;4237;47.030;15.396;2022-10-26T11:07:41;4.70;;;3.85;;
8399;SDS011;4237;47.030;15.396;2022-10-26T11:10:04;10.48;;;3.45;;
8399;SDS011;4237;47.030;15.396;2022-10-26T11:12:37;4.92;;;3.60;;
8399;SDS011;4237;47.030;15.396;2022-10-26T11:15:15;5.78;;;3.65;;
8399;SDS011;4237;47.030;15.396;2022-10-26T11:17:51;4.33;;;3.12;;
8399;SDS011;4237;47.030;15.396;2022-10-26T11:20:20;6.25;;;3.55;;
8399;SDS011;4237;47.030;15.396;2022-10-26T11:25:23;5.72;;;3.37;;
8399;SDS011;4237;47.030;15.396;2022-10-26T11:27:55;8.28;;;3.35;;
8399;SDS011;4237;47.030;15.396;2022-10-26T11:30:21;5.70;;;2.95;;
8399;SDS011;4237;47.030;15.396;2022-10-26T11:38:18;3.52;;;2.75;;
8399;SDS011;4237;47.030;15.396;2022-10-26T11:48:39;4.63;;;3.43;;
8399;SDS011;4237;47.030;15.396;2022-10-26T11:51:06;8.73;;;4.07;;
8399;SDS011;4237;47.030;15.396;2022-10-26T11:53:37;6.33;;;3.67;;
8399;SDS011;4237;47.030;15.396;2022-10-26T11:56:22;7.17;;;3.23;;
8399;SDS011;4237;47.030;15.396;2022-10-26T11:58:38;7.63;;;3.70;;
8399;SDS011;4237;47.030;15.396;2022-10-26T12:01:08;8.17;;;3.43;;
8399;SDS011;4237;47.030;15.396;2022-10-26T12:03:40;5.42;;;3.52;;
8399;SDS011;4237;47.030;15.396;2022-10-26T12:06:09;6.67;;;3.30;;
8399;SDS011;4237;47.030;15.396;2022-10-26T12:08:37;5.55;;;3.15;;
8399;SDS011;4237;47.030;15.396;2022-10-26T12:14:01;6.50;;;2.85;;
8399;SDS011;4237;47.030;15.396;2022-10-26T12:19:14;4.93;;;3.00;;
8399;SDS011;4237;47.030;15.396;2022-10-26T12:21:42;4.97;;;3.47;;
8399;SDS011;4237;47.030;15.396;2022-10-26T12:24:27;5.47;;;3.57;;
8399;SDS011;4237;47.030;15.396;2022-10-26T12:26:59;4.67;;;3.37;;
8399;SDS011;4237;47.030;15.396;2022-10-26T12:32:17;4.87;;;2.70;;
8399;SDS011;4237;47.030;15.396;2022-10-26T12:39:39;5.73;;;2.27;;
8399;SDS011;4237;47.030;15.396;2022-10-26T12:49:59;6.00;;;2.47;;
8399;SDS011;4237;47.030;15.396;2022-10-26T12:52:28;2.67;;;2.20;;
8399;SDS011;4237;47.030;15.396;2022-10-26T12:57:31;3.77;;;2.67;;
8399;SDS011;4237;47.030;15.396;2022-10-26T12:59:59;5.27;;;2.77;;
8399;SDS011;4237;47.030;15.396;2022-10-26T13:08:05;6.50;;;2.10;;
8399;SDS011;4237;47.030;15.396;2022-10-26T13:10:29;2.27;;;2.00;;
8399;SDS011;4237;47.030;15.396;2022-10-26T13:12:58;4.57;;;2.57;;
8399;SDS011;4237;47.030;15.396;2022-10-26T13:15:28;6.30;;;2.70;;
8399;SDS011;4237;47.030;15.396;2022-10-26T13:20:36;4.53;;;2.83;;
8399;SDS011;4237;47.030;15.396;2022-10-26T13:23:19;4.60;;;2.90;;
8399;SDS011;4237;47.030;15.396;2022-10-26T13:25:43;5.07;;;2.53;;
8399;SDS011;4237;47.030;15.396;2022-10-26T13:28:30;2.90;;;2.53;;
8399;SDS011;4237;47.030;15.396;2022-10-26T13:30:55;7.00;;;2.50;;
8399;SDS011;4237;47.030;15.396;2022-10-26T13:33:24;5.67;;;2.60;;
8399;SDS011;4237;47.030;15.396;2022-10-26T13:35:53;4.83;;;2.70;;
8399;SDS011;4237;47.030;15.396;2022-10-26T13:38:24;4.50;;;2.70;;
8399;SDS011;4237;47.030;15.396;2022-10-26T13:40:55;3.83;;;2.70;;
8399;SDS011;4237;47.030;15.396;2022-10-26T13:43:22;5.83;;;2.60;;
8399;SDS011;4237;47.030;15.396;2022-10-26T13:45:53;4.30;;;2.60;;
8399;SDS011;4237;47.030;15.396;2022-10-26T13:50:56;7.57;;;2.50;;
8399;SDS011;4237;47.030;15.396;2022-10-26T13:53:36;5.57;;;3.30;;
8399;SDS011;4237;47.030;15.396;2022-10-26T13:56:11;6.57;;;3.30;;
8399;SDS011;4237;47.030;15.396;2022-10-26T13:58:33;7.60;;;3.60;;
8399;SDS011;4237;47.030;15.396;2022-10-26T14:01:09;5.80;;;3.30;;
8399;SDS011;4237;47.030;15.396;2022-10-26T14:03:32;7.33;;;5.03;;
8399;SDS011;4237;47.030;15.396;2022-10-26T14:06:03;6.07;;;4.77;;
8399;SDS011;4237;47.030;15.396;2022-10-26T14:08:30;14.37;;;4.77;;
8399;SDS011;4237;47.030;15.396;2022-10-26T14:10:58;6.87;;;4.70;;
8399;SDS011;4237;47.030;15.396;2022-10-26T14:13:27;7.97;;;4.37;;
8399;SDS011;4237;47.030;15.396;2022-10-26T14:15:55;9.37;;;3.87;;
8399;SDS011;4237;47.030;15.396;2022-10-26T14:18:26;5.13;;;3.10;;
8399;SDS011;4237;47.030;15.396;2022-10-26T14:21:01;7.33;;;3.30;;
8399;SDS011;4237;47.030;15.396;2022-10-26T14:23:34;7.40;;;2.77;;
8399;SDS011;4237;47.030;15.396;2022-10-26T14:26:03;6.60;;;2.83;;
8399;SDS011;4237;47.030;15.396;2022-10-26T14:28:36;9.97;;;2.70;;
8399;SDS011;4237;47.030;15.396;2022-10-26T14:31:21;7.33;;;4.33;;
8399;SDS011;4237;47.030;15.396;2022-10-26T14:33:50;6.87;;;3.73;;
8399;SDS011;4237;47.030;15.396;2022-10-26T14:36:19;6.23;;;3.80;;
8399;SDS011;4237;47.030;15.396;2022-10-26T14:38:50;7.03;;;3.40;;
8399;SDS011;4237;47.030;15.396;2022-10-26T14:41:18;4.87;;;3.40;;
8399;SDS011;4237;47.030;15.396;2022-10-26T14:43:47;8.30;;;3.53;;
8399;SDS011;4237;47.030;15.396;2022-10-26T14:46:16;7.23;;;3.10;;
8399;SDS011;4237;47.030;15.396;2022-10-26T14:48:54;5.37;;;2.90;;
8399;SDS011;4237;47.030;15.396;2022-10-26T14:51:30;11.67;;;10.30;;
8399;SDS011;4237;47.030;15.396;2022-10-26T14:53:58;7.13;;;4.10;;
8399;SDS011;4237;47.030;15.396;2022-10-26T14:56:29;8.63;;;3.00;;
8399;SDS011;4237;47.030;15.396;2022-10-26T14:58:57;9.87;;;2.93;;
8399;SDS011;4237;47.030;15.396;2022-10-26T15:01:26;5.60;;;2.97;;
8399;SDS011;4237;47.030;15.396;2022-10-26T15:03:59;6.27;;;2.90;;
8399;SDS011;4237;47.030;15.396;2022-10-26T15:08:58;3.93;;;2.70;;
8399;SDS011;4237;47.030;15.396;2022-10-26T15:11:27;4.90;;;3.13;;
8399;SDS011;4237;47.030;15.396;2022-10-26T15:13:56;6.13;;;3.23;;
8399;SDS011;4237;47.030;15.396;2022-10-26T15:16:26;4.57;;;2.80;;
8399;SDS011;4237;47.030;15.396;2022-10-26T15:18:56;4.57;;;2.87;;
8399;SDS011;4237;47.030;15.396;2022-10-26T15:21:25;11.63;;;3.60;;
8399;SDS011;4237;47.030;15.396;2022-10-26T15:23:54;6.60;;;2.67;;
8399;SDS011;4237;47.030;15.396;2022-10-26T15:26:23;8.70;;;3.07;;
8399;SDS011;4237;47.030;15.396;2022-10-26T15:28:52;7.17;;;3.00;;
8399;SDS011;4237;47.030;15.396;2022-10-26T15:31:27;5.73;;;3.60;;
8399;SDS011;4237;47.030;15.396;2022-10-26T15:36:23;13.47;;;4.23;;
8399;SDS011;4237;47.030;15.396;2022-10-26T15:38:51;13.13;;;3.97;;
8399;SDS011;4237;47.030;15.396;2022-10-26T15:41:23;7.37;;;3.60;;
8399;SDS011;4237;47.030;15.396;2022-10-26T15:43:52;7.87;;;4.47;;
8399;SDS011;4237;47.030;15.396;2022-10-26T15:46:22;10.13;;;3.80;;
8399;SDS011;4237;47.030;15.396;2022-10-26T15:48:54;11.60;;;3.80;;
8399;SDS011;4237;47.030;15.396;2022-10-26T15:51:23;10.73;;;4.03;;
8399;SDS011;4237;47.030;15.396;2022-10-26T15:53:57;6.37;;;4.00;;
8399;SDS011;4237;47.030;15.396;2022-10-26T15:56:26;7.87;;;3.90;;
8399;SDS011;4237;47.030;15.396;2022-10-26T15:58:55;6.60;;;4.13;;
8399;SDS011;4237;47.030;15.396;2022-10-26T16:01:24;9.77;;;3.70;;
8399;SDS011;4237;47.030;15.396;2022-10-26T16:03:53;10.97;;;4.27;;
8399;SDS011;4237;47.030;15.396;2022-10-26T16:06:24;10.93;;;4.37;;
8399;SDS011;4237;47.030;15.396;2022-10-26T16:08:51;8.23;;;4.70;;
8399;SDS011;4237;47.030;15.396;2022-10-26T16:11:20;12.63;;;5.63;;
8399;SDS011;4237;47.030;15.396;2022-10-26T16:13:49;7.37;;;5.07;;
8399;SDS011;4237;47.030;15.396;2022-10-26T16:16:18;37.77;;;11.93;;
8399;SDS011;4237;47.030;15.396;2022-10-26T16:18:50;34.17;;;10.13;;
8399;SDS011;4237;47.030;15.396;2022-10-26T16:21:17;14.70;;;8.03;;
8399;SDS011;4237;47.030;15.396;2022-10-26T16:23:48;14.27;;;6.53;;
8399;SDS011;4237;47.030;15.396;2022-10-26T16:26:15;13.00;;;5.47;;
8399;SDS011;4237;47.030;15.396;2022-10-26T16:28:44;12.07;;;5.43;;
8399;SDS011;4237;47.030;15.396;2022-10-26T16:31:13;7.93;;;5.20;;
8399;SDS011;4237;47.030;15.396;2022-10-26T16:33:42;9.60;;;5.57;;
8399;SDS011;4237;47.030;15.396;2022-10-26T16:36:11;11.60;;;5.00;;
8399;SDS011;4237;47.030;15.396;2022-10-26T16:38:39;12.07;;;5.17;;
8399;SDS011;4237;47.030;15.396;2022-10-26T16:41:10;10.50;;;4.60;;
8399;SDS011;4237;47.030;15.396;2022-10-26T16:43:39;7.63;;;4.53;;
8399;SDS011;4237;47.030;15.396;2022-10-26T16:46:09;6.20;;;4.60;;
8399;SDS011;4237;47.030;15.396;2022-10-26T16:48:38;9.27;;;4.77;;
8399;SDS011;4237;47.030;15.396;2022-10-26T16:53:36;11.73;;;4.93;;
8399;SDS011;4237;47.030;15.396;2022-10-26T16:56:06;12.13;;;4.80;;
8399;SDS011;4237;47.030;15.396;2022-10-26T16:58:37;11.00;;;4.93;;
8399;SDS011;4237;47.030;15.396;2022-10-26T17:01:05;9.27;;;4.97;;
8399;SDS011;4237;47.030;15.396;2022-10-26T17:03:34;11.53;;;4.70;;
8399;SDS011;4237;47.030;15.396;2022-10-26T17:06:03;7.77;;;5.00;;
8399;SDS011;4237;47.030;15.396;2022-10-26T17:08:33;15.03;;;5.67;;
8399;SDS011;4237;47.030;15.396;2022-10-26T17:11:03;10.73;;;5.20;;
8399;SDS011;4237;47.030;15.396;2022-10-26T17:13:37;10.57;;;6.57;;
8399;SDS011;4237;47.030;15.396;2022-10-26T17:16:16;10.80;;;5.90;;